Weather at Innamincka Airport

Public forecast

Using degrees Celsius for public forecast. Weather courtesy of forecast.io.

Closest aviation weather report (METAR) to Innamincka Airport

Report is more than 6 hours old.

Closest report is Birdsville Airport, 131.3 nm (243.2 km) NW. Retrieved 2022/05/12 01:00 UTC (12 days ago):

YBDV 120100Z AUTO 19010KT 9999 // SCT026 20/13 Q1016

Closest aviation forecast (TAF) to Innamincka Airport

Closest forecast is Woomera Airfield, 291.3 nm (539.5 km) SW. Retrieved 2022/05/24 06:00 UTC (3 hours ago):

TAF YPWR 240522Z 2406/2500 01016KT 9999 SCT035 FM240800 01012KT 9999 SCT040 FM241200 01012KT 9999 -SHRA SCT050